createdAt,value
2022-10-22T00:04:59.371Z,14.20
2022-10-22T00:10:01.893Z,14.20
2022-10-22T00:15:05.765Z,14.20
2022-10-22T00:20:08.434Z,14.20
2022-10-22T00:25:10.572Z,14.20
2022-10-22T00:30:12.899Z,14.20
2022-10-22T00:35:15.077Z,14.20
2022-10-22T00:40:17.295Z,14.10
2022-10-22T00:50:47.687Z,14.00
2022-10-22T00:55:53.072Z,13.90
2022-10-22T01:00:56.558Z,13.90
2022-10-22T01:06:01.065Z,13.80
2022-10-22T01:11:15.582Z,13.80
2022-10-22T01:16:56.800Z,13.70
2022-10-22T01:22:13.601Z,13.70
2022-10-22T01:27:27.177Z,13.60
2022-10-22T01:32:34.592Z,13.60
2022-10-22T01:37:46.337Z,13.50
2022-10-22T01:43:09.700Z,13.40
2022-10-22T01:48:17.713Z,13.30
2022-10-22T01:53:32.086Z,13.20
2022-10-22T01:58:42.971Z,13.20
2022-10-22T02:04:00.881Z,13.20
2022-10-22T02:09:04.564Z,13.10
2022-10-22T02:14:08.442Z,13.20
2022-10-22T02:19:41.959Z,13.30
2022-10-22T02:24:44.227Z,13.30
2022-10-22T02:30:11.157Z,13.30
2022-10-22T02:35:17.358Z,13.30
2022-10-22T02:40:20.314Z,13.30
2022-10-22T02:45:22.830Z,13.30
2022-10-22T02:50:24.944Z,13.30
2022-10-22T02:55:27.123Z,13.30
2022-10-22T03:00:29.458Z,13.20
2022-10-22T03:05:31.698Z,13.10
2022-10-22T03:10:33.988Z,13.00
2022-10-22T03:15:36.211Z,13.00
2022-10-22T03:20:38.335Z,13.00
2022-10-22T03:25:42.089Z,12.90
2022-10-22T03:30:44.330Z,12.90
2022-10-22T03:35:47.975Z,12.90
2022-10-22T03:40:50.391Z,12.90
2022-10-22T03:45:52.552Z,13.00
2022-10-22T03:50:54.754Z,12.90
2022-10-22T03:55:56.921Z,12.90
2022-10-22T04:01:12.296Z,12.90
2022-10-22T04:06:14.895Z,12.80
2022-10-22T04:11:17.405Z,12.90
2022-10-22T04:16:21.819Z,12.80
2022-10-22T04:21:25.190Z,12.70
2022-10-22T04:26:27.434Z,12.60
2022-10-22T04:31:29.608Z,12.60
2022-10-22T04:36:31.760Z,12.60
2022-10-22T04:41:38.551Z,12.70
2022-10-22T04:46:40.760Z,12.80
2022-10-22T04:51:42.977Z,12.80
2022-10-22T04:56:45.131Z,12.90
2022-10-22T05:01:47.509Z,12.80
2022-10-22T05:06:49.935Z,12.80
2022-10-22T05:11:53.122Z,12.90
2022-10-22T05:16:55.340Z,12.80
2022-10-22T05:21:59.964Z,12.90
2022-10-22T05:27:02.159Z,12.90
2022-10-22T05:32:04.573Z,13.00
2022-10-22T05:37:06.735Z,13.00
2022-10-22T05:42:08.914Z,13.00
2022-10-22T05:47:11.117Z,12.90
2022-10-22T05:52:13.205Z,12.90
2022-10-22T05:57:15.315Z,12.90
2022-10-22T06:02:17.473Z,12.70
2022-10-22T06:07:19.949Z,12.60
2022-10-22T06:12:22.189Z,12.60
2022-10-22T06:17:24.352Z,12.60
2022-10-22T06:22:26.439Z,12.60
2022-10-22T06:27:28.532Z,12.50
2022-10-22T06:32:31.883Z,12.50
2022-10-22T06:37:34.109Z,12.40
2022-10-22T06:42:36.249Z,12.40
2022-10-22T06:47:38.661Z,12.40
2022-10-22T06:52:41.051Z,12.50
2022-10-22T06:57:43.537Z,12.50
2022-10-22T07:02:56.474Z,12.50
2022-10-22T07:08:01.529Z,12.50
2022-10-22T07:13:03.665Z,12.40
2022-10-22T07:18:05.926Z,12.50
2022-10-22T07:23:08.081Z,12.80
2022-10-22T07:28:10.549Z,13.00
2022-10-22T07:33:13.124Z,13.00
2022-10-22T07:38:15.215Z,13.10
2022-10-22T07:43:17.394Z,13.10
2022-10-22T07:48:19.654Z,13.20
2022-10-22T07:53:21.762Z,13.30
2022-10-22T07:58:24.383Z,13.50
2022-10-22T08:03:27.544Z,13.50
2022-10-22T08:08:30.921Z,13.60
2022-10-22T08:13:33.287Z,13.80
2022-10-22T08:18:35.596Z,14.00
2022-10-22T08:23:37.887Z,14.10
2022-10-22T08:28:40.173Z,14.30
2022-10-22T08:33:42.858Z,14.40
2022-10-22T08:38:45.133Z,14.60
2022-10-22T08:44:28.828Z,14.80
2022-10-22T08:49:38.389Z,15.10
2022-10-22T08:54:58.787Z,15.20
2022-10-22T09:00:11.421Z,15.40
2022-10-22T09:05:36.648Z,15.40
2022-10-22T09:10:42.335Z,15.60
2022-10-22T09:15:48.910Z,15.60
2022-10-22T09:21:13.976Z,15.70
2022-10-22T09:26:17.622Z,15.90
2022-10-22T09:31:19.854Z,16.00
2022-10-22T09:36:23.219Z,16.00
2022-10-22T09:41:32.115Z,16.00
2022-10-22T09:46:45.561Z,16.10
2022-10-22T09:51:58.754Z,16.20
2022-10-22T09:57:04.731Z,16.20
2022-10-22T10:02:20.423Z,16.30
2022-10-22T10:07:34.127Z,16.40
2022-10-22T10:12:57.320Z,16.50
2022-10-22T10:18:23.831Z,16.60
2022-10-22T10:24:06.139Z,16.70
2022-10-22T10:29:16.796Z,16.60
2022-10-22T10:34:51.307Z,16.60
2022-10-22T10:40:23.432Z,16.70
2022-10-22T10:45:47.102Z,16.80
2022-10-22T10:51:18.303Z,16.80
2022-10-22T10:56:44.958Z,16.90
2022-10-22T11:02:02.075Z,17.00
2022-10-22T11:07:11.506Z,17.10
2022-10-22T11:12:35.387Z,17.00
2022-10-22T11:17:43.245Z,17.10
2022-10-22T11:23:18.147Z,17.20
2022-10-22T11:28:40.229Z,17.40
2022-10-22T11:33:52.708Z,17.40
2022-10-22T11:38:59.453Z,17.50
2022-10-22T11:44:22.105Z,17.80
2022-10-22T11:49:41.148Z,17.80
2022-10-22T11:54:45.238Z,17.80
2022-10-22T11:59:47.325Z,17.90
2022-10-22T12:04:49.616Z,18.00
2022-10-22T12:15:01.052Z,18.20
2022-10-22T12:20:12.188Z,18.60
2022-10-22T12:25:22.261Z,18.90
2022-10-22T12:30:30.881Z,18.90
2022-10-22T12:35:41.793Z,19.30
2022-10-22T12:40:47.683Z,19.60
2022-10-22T12:45:52.895Z,19.80
2022-10-22T12:50:58.572Z,19.80
2022-10-22T12:56:03.886Z,19.80
2022-10-22T13:01:06.690Z,19.30
2022-10-22T13:06:22.481Z,19.10
2022-10-22T13:11:31.026Z,19.20
2022-10-22T13:16:33.374Z,19.30
2022-10-22T13:21:39.085Z,19.40
2022-10-22T13:26:41.283Z,19.60
2022-10-22T13:31:49.185Z,19.60
2022-10-22T13:36:51.818Z,19.40
2022-10-22T13:41:54.256Z,19.20
2022-10-22T13:46:56.450Z,19.10
2022-10-22T13:52:00.698Z,18.90
2022-10-22T13:57:02.816Z,18.90
2022-10-22T14:02:12.229Z,19.00
2022-10-22T14:07:17.920Z,19.10
2022-10-22T14:12:20.053Z,19.00
2022-10-22T14:17:22.294Z,18.90
2022-10-22T14:22:27.363Z,19.00
2022-10-22T14:27:29.560Z,19.10
2022-10-22T14:32:31.738Z,19.20
2022-10-22T14:37:33.851Z,19.10
2022-10-22T14:42:41.806Z,19.20
2022-10-22T14:47:44.367Z,19.20
2022-10-22T14:52:46.616Z,19.00
2022-10-22T14:57:48.841Z,18.90
2022-10-22T15:02:51.007Z,19.00
2022-10-22T15:07:53.168Z,19.10
2022-10-22T15:12:55.299Z,19.20
2022-10-22T15:17:57.461Z,19.20
2022-10-22T15:22:59.631Z,19.10
2022-10-22T15:28:09.061Z,18.90
2022-10-22T15:33:12.003Z,18.80
2022-10-22T15:38:14.135Z,18.70
2022-10-22T15:43:16.417Z,18.70
2022-10-22T15:48:18.534Z,18.60
2022-10-22T15:53:20.689Z,18.60
2022-10-22T15:58:22.899Z,18.60
2022-10-22T16:03:25.037Z,18.60
2022-10-22T16:08:28.458Z,18.60
2022-10-22T16:13:31.157Z,18.60
2022-10-22T16:18:33.572Z,18.60
2022-10-22T16:23:35.669Z,18.40
2022-10-22T16:28:37.849Z,18.30
2022-10-22T16:33:46.479Z,18.00
2022-10-22T16:38:52.034Z,17.90
2022-10-22T16:43:55.796Z,17.70
2022-10-22T16:48:58.087Z,17.50
2022-10-22T16:54:00.277Z,17.40
2022-10-22T16:59:02.459Z,17.30
2022-10-22T17:04:04.588Z,17.20
2022-10-22T17:09:06.840Z,17.20
2022-10-22T17:14:09.721Z,17.10
2022-10-22T17:19:15.999Z,17.00
2022-10-22T17:24:18.540Z,17.00
2022-10-22T17:29:22.064Z,16.90
2022-10-22T17:34:24.942Z,16.90
2022-10-22T17:39:27.535Z,16.80
2022-10-22T17:44:29.744Z,16.80
2022-10-22T17:49:31.891Z,16.80
2022-10-22T17:54:34.283Z,16.80
2022-10-22T17:59:37.751Z,16.80
2022-10-22T18:04:39.915Z,16.80
2022-10-22T18:09:42.960Z,16.80
2022-10-22T18:14:47.068Z,16.80
2022-10-22T18:19:49.532Z,16.80
2022-10-22T18:24:53.113Z,17.00
2022-10-22T18:29:55.226Z,16.80
2022-10-22T18:34:57.445Z,16.80
2022-10-22T18:39:59.796Z,16.80
2022-10-22T18:45:02.009Z,16.80
2022-10-22T18:50:05.048Z,16.80
2022-10-22T18:55:07.693Z,16.80
2022-10-22T19:00:10.438Z,16.80
2022-10-22T19:05:12.626Z,16.80
2022-10-22T19:10:15.049Z,16.80
2022-10-22T19:15:17.259Z,16.70
2022-10-22T19:20:19.464Z,16.70
2022-10-22T19:25:22.164Z,16.70
2022-10-22T19:30:24.395Z,16.70
2022-10-22T19:35:26.479Z,16.70
2022-10-22T19:40:28.720Z,16.70
2022-10-22T19:45:30.785Z,16.70
2022-10-22T19:50:33.013Z,16.60
2022-10-22T19:55:35.165Z,16.60
2022-10-22T20:00:38.159Z,16.60
2022-10-22T20:05:41.676Z,16.60
2022-10-22T20:10:43.751Z,16.60
2022-10-22T20:15:49.577Z,16.60
2022-10-22T20:20:51.693Z,16.50
2022-10-22T20:25:53.835Z,16.50
2022-10-22T20:30:56.018Z,16.40
2022-10-22T20:36:03.449Z,16.40
2022-10-22T20:41:08.627Z,16.40
2022-10-22T20:46:35.315Z,16.40
2022-10-22T20:51:38.229Z,16.30
2022-10-22T20:56:41.240Z,16.30
2022-10-22T21:01:47.081Z,16.30
2022-10-22T21:06:50.312Z,16.30
2022-10-22T21:11:56.045Z,16.30
2022-10-22T21:16:59.819Z,16.30
2022-10-22T21:22:01.933Z,16.30
2022-10-22T21:27:04.462Z,16.30
2022-10-22T21:32:06.652Z,16.30
2022-10-22T21:37:08.747Z,16.30
2022-10-22T21:42:10.841Z,16.30
2022-10-22T21:47:12.994Z,16.30
2022-10-22T21:52:15.253Z,16.30
2022-10-22T21:57:17.480Z,16.20
2022-10-22T22:07:26.719Z,16.20
2022-10-22T22:12:28.771Z,16.10
2022-10-22T22:17:30.870Z,16.10
2022-10-22T22:22:33.213Z,16.20
2022-10-22T22:27:35.523Z,16.10
2022-10-22T22:32:37.782Z,16.10
2022-10-22T22:37:40.271Z,16.20
2022-10-22T22:42:42.800Z,16.10
2022-10-22T22:47:45.019Z,16.10
2022-10-22T22:52:47.436Z,16.10
2022-10-22T22:57:50.108Z,16.10
2022-10-22T23:02:56.009Z,16.10
2022-10-22T23:07:58.033Z,16.10
2022-10-22T23:13:00.110Z,16.10
2022-10-22T23:18:02.224Z,16.10
2022-10-22T23:23:06.208Z,16.10
2022-10-22T23:28:08.305Z,16.10
2022-10-22T23:33:10.717Z,16.10
2022-10-22T23:38:12.871Z,16.00
2022-10-22T23:43:15.294Z,16.00
2022-10-22T23:48:17.863Z,16.10
2022-10-22T23:53:20.001Z,16.00
2022-10-22T23:58:22.365Z,16.10
